sensor_id;sensor_type;location;lat;lon;timestamp;pressure;altitude;pressure_sealevel;temperature;humidity
78835;BME280;68187;42.682;23.352;2023-06-14T00:01:48;94862.91;;;16.23;88.94
78835;BME280;68187;42.682;23.352;2023-06-14T00:04:15;94872.00;;;16.31;89.05
78835;BME280;68187;42.682;23.352;2023-06-14T00:06:42;94862.91;;;16.23;88.66
78835;BME280;68187;42.682;23.352;2023-06-14T00:09:10;94878.91;;;16.32;89.08
78835;BME280;68187;42.682;23.352;2023-06-14T00:11:38;94875.19;;;16.33;88.99
78835;BME280;68187;42.682;23.352;2023-06-14T00:14:04;94855.84;;;16.27;89.18
78835;BME280;68187;42.682;23.352;2023-06-14T00:16:31;94856.81;;;16.31;89.50
78835;BME280;68187;42.682;23.352;2023-06-14T00:19:00;94867.94;;;16.33;89.68
78835;BME280;68187;42.682;23.352;2023-06-14T00:21:28;94853.19;;;16.27;89.94
78835;BME280;68187;42.682;23.352;2023-06-14T00:23:55;94866.38;;;16.32;89.83
78835;BME280;68187;42.682;23.352;2023-06-14T00:26:22;94857.91;;;16.30;90.05
78835;BME280;68187;42.682;23.352;2023-06-14T00:28:49;94857.44;;;16.28;89.70
78835;BME280;68187;42.682;23.352;2023-06-14T00:31:15;94860.38;;;16.27;89.45
78835;BME280;68187;42.682;23.352;2023-06-14T00:33:42;94858.41;;;16.32;89.50
78835;BME280;68187;42.682;23.352;2023-06-14T00:36:11;94853.06;;;16.32;89.51
78835;BME280;68187;42.682;23.352;2023-06-14T00:38:37;94848.81;;;16.31;89.59
78835;BME280;68187;42.682;23.352;2023-06-14T00:41:04;94856.69;;;16.36;89.66
78835;BME280;68187;42.682;23.352;2023-06-14T00:43:31;94841.13;;;16.30;89.68
78835;BME280;68187;42.682;23.352;2023-06-14T00:46:00;94848.38;;;16.38;89.94
78835;BME280;68187;42.682;23.352;2023-06-14T00:48:28;94846.03;;;16.36;90.01
78835;BME280;68187;42.682;23.352;2023-06-14T00:50:56;94839.09;;;16.35;90.18
78835;BME280;68187;42.682;23.352;2023-06-14T00:53:24;94841.47;;;16.37;89.83
78835;BME280;68187;42.682;23.352;2023-06-14T00:55:51;94840.22;;;16.34;89.90
78835;BME280;68187;42.682;23.352;2023-06-14T00:58:19;94846.94;;;16.32;90.07
78835;BME280;68187;42.682;23.352;2023-06-14T01:00:47;94829.34;;;16.22;90.12
78835;BME280;68187;42.682;23.352;2023-06-14T01:03:14;94840.81;;;16.31;90.31
78835;BME280;68187;42.682;23.352;2023-06-14T01:05:47;94840.53;;;16.33;90.21
78835;BME280;68187;42.682;23.352;2023-06-14T01:08:22;94841.78;;;16.35;89.92
78835;BME280;68187;42.682;23.352;2023-06-14T01:10:59;94830.28;;;16.26;90.23
78835;BME280;68187;42.682;23.352;2023-06-14T01:13:35;94828.06;;;16.20;90.29
78835;BME280;68187;42.682;23.352;2023-06-14T01:16:03;94840.66;;;16.28;90.29
78835;BME280;68187;42.682;23.352;2023-06-14T01:18:30;94843.47;;;16.31;90.13
78835;BME280;68187;42.682;23.352;2023-06-14T01:20:57;94837.19;;;16.27;90.16
78835;BME280;68187;42.682;23.352;2023-06-14T01:23:26;94839.25;;;16.30;90.42
78835;BME280;68187;42.682;23.352;2023-06-14T01:25:57;94841.94;;;16.30;90.33
78835;BME280;68187;42.682;23.352;2023-06-14T01:28:24;94834.22;;;16.29;90.47
78835;BME280;68187;42.682;23.352;2023-06-14T01:31:00;94832.47;;;16.24;90.40
78835;BME280;68187;42.682;23.352;2023-06-14T01:33:28;94847.41;;;16.34;90.12
78835;BME280;68187;42.682;23.352;2023-06-14T01:35:56;94838.94;;;16.32;89.77
78835;BME280;68187;42.682;23.352;2023-06-14T01:38:26;94843.47;;;16.31;89.97
78835;BME280;68187;42.682;23.352;2023-06-14T01:40:54;94829.53;;;16.26;89.80
78835;BME280;68187;42.682;23.352;2023-06-14T01:43:23;94834.06;;;16.25;89.80
78835;BME280;68187;42.682;23.352;2023-06-14T01:45:51;94826.06;;;16.25;90.00
78835;BME280;68187;42.682;23.352;2023-06-14T01:48:20;94840.81;;;16.31;89.62
78835;BME280;68187;42.682;23.352;2023-06-14T01:50:47;94824.00;;;16.22;89.45
78835;BME280;68187;42.682;23.352;2023-06-14T01:53:14;94839.53;;;16.29;89.45
78835;BME280;68187;42.682;23.352;2023-06-14T01:55:43;94832.00;;;16.22;89.50
78835;BME280;68187;42.682;23.352;2023-06-14T01:58:10;94815.81;;;16.10;89.40
78835;BME280;68187;42.682;23.352;2023-06-14T02:00:36;94846.78;;;16.28;89.56
78835;BME280;68187;42.682;23.352;2023-06-14T02:03:03;94846.28;;;16.26;89.70
78835;BME280;68187;42.682;23.352;2023-06-14T02:05:30;94851.59;;;16.26;89.61
78835;BME280;68187;42.682;23.352;2023-06-14T02:07:57;94846.91;;;16.23;88.70
78835;BME280;68187;42.682;23.352;2023-06-14T02:10:24;94837.78;;;16.16;88.71
78835;BME280;68187;42.682;23.352;2023-06-14T02:12:52;94847.16;;;16.13;89.30
78835;BME280;68187;42.682;23.352;2023-06-14T02:15:19;94850.44;;;16.10;89.39
78835;BME280;68187;42.682;23.352;2023-06-14T02:17:47;94857.34;;;16.11;89.37
78835;BME280;68187;42.682;23.352;2023-06-14T02:20:14;94857.81;;;16.13;89.07
78835;BME280;68187;42.682;23.352;2023-06-14T02:22:42;94866.91;;;16.12;89.39
78835;BME280;68187;42.682;23.352;2023-06-14T02:25:08;94864.06;;;16.09;89.77
78835;BME280;68187;42.682;23.352;2023-06-14T02:27:35;94872.38;;;16.07;89.64
78835;BME280;68187;42.682;23.352;2023-06-14T02:30:05;94848.47;;;15.94;89.67
78835;BME280;68187;42.682;23.352;2023-06-14T02:32:32;94875.81;;;16.08;89.31
78835;BME280;68187;42.682;23.352;2023-06-14T02:35:01;94862.03;;;16.06;88.78
78835;BME280;68187;42.682;23.352;2023-06-14T02:37:27;94860.88;;;15.98;89.28
78835;BME280;68187;42.682;23.352;2023-06-14T02:39:55;94868.13;;;16.06;89.28
78835;BME280;68187;42.682;23.352;2023-06-14T02:42:22;94871.09;;;16.05;89.26
78835;BME280;68187;42.682;23.352;2023-06-14T02:44:48;94875.16;;;16.02;89.36
78835;BME280;68187;42.682;23.352;2023-06-14T02:47:17;94862.25;;;15.96;89.53
78835;BME280;68187;42.682;23.352;2023-06-14T02:49:44;94868.53;;;16.00;89.44
78835;BME280;68187;42.682;23.352;2023-06-14T02:52:12;94851.09;;;15.85;89.66
78835;BME280;68187;42.682;23.352;2023-06-14T02:54:39;94836.09;;;15.67;89.99
78835;BME280;68187;42.682;23.352;2023-06-14T02:57:07;94868.19;;;15.93;89.39
78835;BME280;68187;42.682;23.352;2023-06-14T02:59:34;94872.25;;;15.90;89.36
78835;BME280;68187;42.682;23.352;2023-06-14T03:02:01;94875.69;;;15.91;88.44
78835;BME280;68187;42.682;23.352;2023-06-14T03:04:29;94877.88;;;15.89;88.74
78835;BME280;68187;42.682;23.352;2023-06-14T03:07:02;94854.88;;;15.70;88.93
78835;BME280;68187;42.682;23.352;2023-06-14T03:09:34;94882.25;;;15.85;89.05
78835;BME280;68187;42.682;23.352;2023-06-14T03:12:01;94879.09;;;15.83;89.15
78835;BME280;68187;42.682;23.352;2023-06-14T03:14:28;94885.81;;;15.80;89.17
78835;BME280;68187;42.682;23.352;2023-06-14T03:16:56;94884.22;;;15.79;89.14
78835;BME280;68187;42.682;23.352;2023-06-14T03:19:22;94883.47;;;15.79;88.83
78835;BME280;68187;42.682;23.352;2023-06-14T03:21:51;94891.44;;;15.79;88.86
78835;BME280;68187;42.682;23.352;2023-06-14T03:24:18;94888.00;;;15.78;88.71
78835;BME280;68187;42.682;23.352;2023-06-14T03:26:46;94878.38;;;15.68;88.56
78835;BME280;68187;42.682;23.352;2023-06-14T03:29:12;94891.25;;;15.75;88.74
78835;BME280;68187;42.682;23.352;2023-06-14T03:31:55;94877.69;;;15.63;88.89
78835;BME280;68187;42.682;23.352;2023-06-14T03:34:22;94892.47;;;15.69;88.68
78835;BME280;68187;42.682;23.352;2023-06-14T03:36:50;94891.38;;;15.70;89.18
78835;BME280;68187;42.682;23.352;2023-06-14T03:39:17;94895.94;;;15.69;89.26
78835;BME280;68187;42.682;23.352;2023-06-14T03:41:43;94855.38;;;15.37;89.60
78835;BME280;68187;42.682;23.352;2023-06-14T03:44:10;94896.09;;;15.73;89.54
78835;BME280;68187;42.682;23.352;2023-06-14T03:46:37;94887.63;;;15.71;89.10
78835;BME280;68187;42.682;23.352;2023-06-14T03:49:04;94872.88;;;15.65;89.33
78835;BME280;68187;42.682;23.352;2023-06-14T03:51:31;94899.94;;;15.81;89.34
78835;BME280;68187;42.682;23.352;2023-06-14T03:54:02;94896.03;;;15.87;89.60
78835;BME280;68187;42.682;23.352;2023-06-14T03:56:28;94895.72;;;15.88;89.64
78835;BME280;68187;42.682;23.352;2023-06-14T03:58:55;94896.41;;;15.94;88.98
78835;BME280;68187;42.682;23.352;2023-06-14T04:01:22;94895.72;;;15.88;88.94
78835;BME280;68187;42.682;23.352;2023-06-14T04:03:55;94904.09;;;15.95;89.21
78835;BME280;68187;42.682;23.352;2023-06-14T04:06:22;94890.28;;;15.93;89.59
78835;BME280;68187;42.682;23.352;2023-06-14T04:08:50;94902.75;;;16.06;88.97
78835;BME280;68187;42.682;23.352;2023-06-14T04:11:18;94899.47;;;16.09;88.33
78835;BME280;68187;42.682;23.352;2023-06-14T04:13:45;94883.75;;;15.99;88.63
78835;BME280;68187;42.682;23.352;2023-06-14T04:16:13;94895.22;;;16.08;88.90
78835;BME280;68187;42.682;23.352;2023-06-14T04:18:39;94904.06;;;16.17;89.35
78835;BME280;68187;42.682;23.352;2023-06-14T04:21:06;94899.72;;;16.21;89.79
78835;BME280;68187;42.682;23.352;2023-06-14T04:23:33;94900.38;;;16.27;90.04
78835;BME280;68187;42.682;23.352;2023-06-14T04:26:00;94884.16;;;16.15;89.71
78835;BME280;68187;42.682;23.352;2023-06-14T04:28:29;94896.63;;;16.28;89.76
78835;BME280;68187;42.682;23.352;2023-06-14T04:30:56;94909.03;;;16.32;89.20
78835;BME280;68187;42.682;23.352;2023-06-14T04:33:22;94902.31;;;16.35;88.17
78835;BME280;68187;42.682;23.352;2023-06-14T04:35:50;94903.44;;;16.42;87.05
78835;BME280;68187;42.682;23.352;2023-06-14T04:38:19;94904.56;;;16.50;85.39
78835;BME280;68187;42.682;23.352;2023-06-14T04:40:50;94891.38;;;16.45;85.93
78835;BME280;68187;42.682;23.352;2023-06-14T04:43:18;94905.56;;;16.54;86.18
78835;BME280;68187;42.682;23.352;2023-06-14T04:45:54;94908.69;;;16.56;85.44
78835;BME280;68187;42.682;23.352;2023-06-14T04:48:21;94905.28;;;16.64;85.17
78835;BME280;68187;42.682;23.352;2023-06-14T04:50:48;94897.44;;;16.59;85.67
78835;BME280;68187;42.682;23.352;2023-06-14T04:53:19;94909.72;;;16.69;85.46
78835;BME280;68187;42.682;23.352;2023-06-14T04:55:48;94905.56;;;16.54;85.60
78835;BME280;68187;42.682;23.352;2023-06-14T04:58:15;94914.34;;;16.55;85.70
78835;BME280;68187;42.682;23.352;2023-06-14T05:00:42;94925.81;;;16.55;86.15
78835;BME280;68187;42.682;23.352;2023-06-14T05:03:11;94923.94;;;16.56;86.00
78835;BME280;68187;42.682;23.352;2023-06-14T05:05:39;94922.34;;;16.55;86.24
78835;BME280;68187;42.682;23.352;2023-06-14T05:08:06;94931.84;;;16.69;85.43
78835;BME280;68187;42.682;23.352;2023-06-14T05:10:33;94925.75;;;16.77;84.89
78835;BME280;68187;42.682;23.352;2023-06-14T05:13:00;94927.00;;;16.80;84.09
78835;BME280;68187;42.682;23.352;2023-06-14T05:15:27;94921.50;;;16.76;83.60
78835;BME280;68187;42.682;23.352;2023-06-14T05:17:54;94898.84;;;16.65;83.40
78835;BME280;68187;42.682;23.352;2023-06-14T05:20:22;94932.22;;;16.85;84.09
78835;BME280;68187;42.682;23.352;2023-06-14T05:22:50;94915.38;;;16.76;84.45
78835;BME280;68187;42.682;23.352;2023-06-14T05:25:18;94921.81;;;16.75;84.96
78835;BME280;68187;42.682;23.352;2023-06-14T05:27:45;94939.44;;;16.93;85.03
78835;BME280;68187;42.682;23.352;2023-06-14T05:30:13;94943.25;;;17.00;84.60
78835;BME280;68187;42.682;23.352;2023-06-14T05:32:39;94932.56;;;17.00;84.75
78835;BME280;68187;42.682;23.352;2023-06-14T05:35:07;94954.28;;;17.16;83.80
78835;BME280;68187;42.682;23.352;2023-06-14T05:37:35;94941.06;;;17.11;83.36
78835;BME280;68187;42.682;23.352;2023-06-14T05:40:02;94938.28;;;17.16;82.27
78835;BME280;68187;42.682;23.352;2023-06-14T05:42:31;94950.56;;;17.34;81.95
78835;BME280;68187;42.682;23.352;2023-06-14T05:44:57;94948.22;;;17.33;82.53
78835;BME280;68187;42.682;23.352;2023-06-14T05:47:24;94940.81;;;17.30;83.42
78835;BME280;68187;42.682;23.352;2023-06-14T05:49:51;94948.84;;;17.38;84.00
78835;BME280;68187;42.682;23.352;2023-06-14T05:52:17;94938.63;;;17.32;83.87
78835;BME280;68187;42.682;23.352;2023-06-14T05:54:46;94950.91;;;17.41;82.91
78835;BME280;68187;42.682;23.352;2023-06-14T05:57:13;94939.09;;;17.34;82.70
78835;BME280;68187;42.682;23.352;2023-06-14T05:59:40;94946.97;;;17.39;83.33
78835;BME280;68187;42.682;23.352;2023-06-14T06:02:06;94934.88;;;17.33;82.30
78835;BME280;68187;42.682;23.352;2023-06-14T06:04:33;94955.97;;;17.51;82.53
78835;BME280;68187;42.682;23.352;2023-06-14T06:07:00;94961.47;;;17.55;82.41
78835;BME280;68187;42.682;23.352;2023-06-14T06:09:27;94933.28;;;17.40;82.02
78835;BME280;68187;42.682;23.352;2023-06-14T06:11:55;94949.03;;;17.50;81.76
78835;BME280;68187;42.682;23.352;2023-06-14T06:14:21;94953.78;;;17.53;81.54
78835;BME280;68187;42.682;23.352;2023-06-14T06:16:48;94962.28;;;17.64;82.01
78835;BME280;68187;42.682;23.352;2023-06-14T06:19:15;94969.34;;;17.68;82.49
78835;BME280;68187;42.682;23.352;2023-06-14T06:21:42;94966.06;;;17.71;80.27
78835;BME280;68187;42.682;23.352;2023-06-14T06:24:09;94945.94;;;17.57;80.58
78835;BME280;68187;42.682;23.352;2023-06-14T06:26:35;94949.38;;;17.57;82.20
78835;BME280;68187;42.682;23.352;2023-06-14T06:29:04;94960.22;;;17.61;81.88
78835;BME280;68187;42.682;23.352;2023-06-14T06:31:31;94974.69;;;17.68;81.92
78835;BME280;68187;42.682;23.352;2023-06-14T06:33:58;94961.34;;;17.60;81.77
78835;BME280;68187;42.682;23.352;2023-06-14T06:36:24;94973.91;;;17.68;80.63
78835;BME280;68187;42.682;23.352;2023-06-14T06:38:51;94976.56;;;17.68;80.91
78835;BME280;68187;42.682;23.352;2023-06-14T06:41:18;94964.00;;;17.60;81.73
78835;BME280;68187;42.682;23.352;2023-06-14T06:43:45;94973.44;;;17.66;82.02
78835;BME280;68187;42.682;23.352;2023-06-14T06:46:13;94967.94;;;17.62;81.43
78835;BME280;68187;42.682;23.352;2023-06-14T06:48:40;94977.03;;;17.70;80.88
78835;BME280;68187;42.682;23.352;2023-06-14T06:51:06;94980.19;;;17.72;81.49
78835;BME280;68187;42.682;23.352;2023-06-14T06:53:33;94973.91;;;17.76;82.54
78835;BME280;68187;42.682;23.352;2023-06-14T06:56:00;94980.03;;;17.77;80.50
78835;BME280;68187;42.682;23.352;2023-06-14T06:58:27;94958.81;;;17.63;80.79
78835;BME280;68187;42.682;23.352;2023-06-14T07:00:53;94972.50;;;17.79;79.57
78835;BME280;68187;42.682;23.352;2023-06-14T07:03:21;94984.16;;;17.92;81.08
78835;BME280;68187;42.682;23.352;2023-06-14T07:05:48;94977.06;;;17.96;81.80
78835;BME280;68187;42.682;23.352;2023-06-14T07:08:15;94984.16;;;18.00;83.27
78835;BME280;68187;42.682;23.352;2023-06-14T07:10:42;94979.59;;;18.01;82.96
78835;BME280;68187;42.682;23.352;2023-06-14T07:13:08;94977.06;;;18.04;83.29
78835;BME280;68187;42.682;23.352;2023-06-14T07:15:35;94968.44;;;17.99;81.58
78835;BME280;68187;42.682;23.352;2023-06-14T07:18:02;94974.69;;;18.20;81.65
78835;BME280;68187;42.682;23.352;2023-06-14T07:20:30;94970.00;;;18.25;81.61
78835;BME280;68187;42.682;23.352;2023-06-14T07:22:58;94976.91;;;18.35;79.37
78835;BME280;68187;42.682;23.352;2023-06-14T07:25:25;94975.16;;;18.39;79.34
78835;BME280;68187;42.682;23.352;2023-06-14T07:27:51;94941.81;;;18.36;78.17
78835;BME280;68187;42.682;23.352;2023-06-14T07:30:18;94958.63;;;18.71;77.05
78835;BME280;68187;42.682;23.352;2023-06-14T07:32:45;94966.88;;;18.95;76.60
78835;BME280;68187;42.682;23.352;2023-06-14T07:35:12;94962.97;;;19.22;76.84
78835;BME280;68187;42.682;23.352;2023-06-14T07:37:40;94960.59;;;19.58;75.08
78835;BME280;68187;42.682;23.352;2023-06-14T07:40:08;94965.84;;;19.75;74.79
78835;BME280;68187;42.682;23.352;2023-06-14T07:42:36;94937.53;;;19.66;72.81
78835;BME280;68187;42.682;23.352;2023-06-14T07:45:03;94959.38;;;19.97;72.94
78835;BME280;68187;42.682;23.352;2023-06-14T07:47:30;94964.91;;;20.21;71.71
78835;BME280;68187;42.682;23.352;2023-06-14T07:49:56;94955.44;;;20.36;71.20
78835;BME280;68187;42.682;23.352;2023-06-14T07:52:23;94959.63;;;20.45;67.54
78835;BME280;68187;42.682;23.352;2023-06-14T07:54:52;94962.50;;;20.40;68.46
78835;BME280;68187;42.682;23.352;2023-06-14T07:57:18;94963.09;;;20.46;68.39
78835;BME280;68187;42.682;23.352;2023-06-14T07:59:46;94952.47;;;20.37;67.51
78835;BME280;68187;42.682;23.352;2023-06-14T08:02:13;94968.13;;;20.47;66.53
78835;BME280;68187;42.682;23.352;2023-06-14T08:04:39;94952.56;;;20.20;68.58
78835;BME280;68187;42.682;23.352;2023-06-14T08:07:07;94984.41;;;20.42;72.02
78835;BME280;68187;42.682;23.352;2023-06-14T08:09:34;94988.03;;;20.46;71.70
78835;BME280;68187;42.682;23.352;2023-06-14T08:12:05;94988.34;;;20.45;69.02
78835;BME280;68187;42.682;23.352;2023-06-14T08:14:32;94990.22;;;20.32;69.25
78835;BME280;68187;42.682;23.352;2023-06-14T08:16:59;94990.13;;;20.20;68.98
78835;BME280;68187;42.682;23.352;2023-06-14T08:19:26;94998.25;;;20.32;67.64
78835;BME280;68187;42.682;23.352;2023-06-14T08:21:53;94985.88;;;20.19;67.79
78835;BME280;68187;42.682;23.352;2023-06-14T08:24:21;94996.41;;;20.24;69.47
78835;BME280;68187;42.682;23.352;2023-06-14T08:26:49;94999.16;;;20.36;68.29
78835;BME280;68187;42.682;23.352;2023-06-14T08:29:17;94990.66;;;20.34;70.25
78835;BME280;68187;42.682;23.352;2023-06-14T08:31:44;94997.38;;;20.40;68.63
78835;BME280;68187;42.682;23.352;2023-06-14T08:34:11;94988.19;;;20.29;68.20
78835;BME280;68187;42.682;23.352;2023-06-14T08:36:38;94994.84;;;20.44;68.80
78835;BME280;68187;42.682;23.352;2023-06-14T08:39:05;94997.84;;;20.42;67.18
78835;BME280;68187;42.682;23.352;2023-06-14T08:41:32;95004.13;;;20.46;67.80
78835;BME280;68187;42.682;23.352;2023-06-14T08:43:59;94998.88;;;20.50;67.80
78835;BME280;68187;42.682;23.352;2023-06-14T08:46:27;94972.94;;;20.54;68.64
78835;BME280;68187;42.682;23.352;2023-06-14T08:48:58;94988.31;;;20.66;68.33
78835;BME280;68187;42.682;23.352;2023-06-14T08:51:25;94972.59;;;20.88;65.32
78835;BME280;68187;42.682;23.352;2023-06-14T08:53:59;94958.41;;;21.00;65.77
78835;BME280;68187;42.682;23.352;2023-06-14T08:56:27;94974.69;;;21.27;63.65
78835;BME280;68187;42.682;23.352;2023-06-14T08:58:55;94977.28;;;21.36;62.63
78835;BME280;68187;42.682;23.352;2023-06-14T09:01:22;94984.44;;;21.32;62.43
78835;BME280;68187;42.682;23.352;2023-06-14T09:03:50;94976.16;;;21.37;63.35
78835;BME280;68187;42.682;23.352;2023-06-14T09:06:17;94975.25;;;21.57;66.23
78835;BME280;68187;42.682;23.352;2023-06-14T09:08:45;94975.25;;;21.69;64.93
78835;BME280;68187;42.682;23.352;2023-06-14T09:11:13;94979.84;;;21.69;62.79
78835;BME280;68187;42.682;23.352;2023-06-14T09:13:41;94976.94;;;21.62;62.73
78835;BME280;68187;42.682;23.352;2023-06-14T09:16:08;94972.22;;;21.59;62.44
78835;BME280;68187;42.682;23.352;2023-06-14T09:18:36;94958.25;;;21.41;63.26
78835;BME280;68187;42.682;23.352;2023-06-14T09:21:05;94966.19;;;21.38;64.49
78835;BME280;68187;42.682;23.352;2023-06-14T09:23:33;94947.38;;;21.25;62.74
78835;BME280;68187;42.682;23.352;2023-06-14T09:26:06;94975.47;;;21.40;63.47
78835;BME280;68187;42.682;23.352;2023-06-14T09:28:33;94946.72;;;21.41;62.75
78835;BME280;68187;42.682;23.352;2023-06-14T09:31:00;94953.75;;;21.45;62.61
78835;BME280;68187;42.682;23.352;2023-06-14T09:33:27;94952.97;;;21.57;63.13
78835;BME280;68187;42.682;23.352;2023-06-14T09:35:54;94936.94;;;21.72;62.41
78835;BME280;68187;42.682;23.352;2023-06-14T09:38:24;94966.19;;;22.26;62.83
78835;BME280;68187;42.682;23.352;2023-06-14T09:40:51;94966.09;;;22.50;61.28
78835;BME280;68187;42.682;23.352;2023-06-14T09:43:19;94964.50;;;22.49;60.98
78835;BME280;68187;42.682;23.352;2023-06-14T09:45:47;94958.84;;;22.66;62.68
78835;BME280;68187;42.682;23.352;2023-06-14T09:48:14;94947.94;;;22.90;59.34
78835;BME280;68187;42.682;23.352;2023-06-14T09:50:44;94935.69;;;22.93;58.52
78835;BME280;68187;42.682;23.352;2023-06-14T09:53:12;94937.53;;;23.04;57.64
78835;BME280;68187;42.682;23.352;2023-06-14T09:55:41;94951.16;;;23.27;57.84
78835;BME280;68187;42.682;23.352;2023-06-14T09:58:10;94949.09;;;23.36;56.70
78835;BME280;68187;42.682;23.352;2023-06-14T10:00:38;94931.88;;;23.09;56.19
78835;BME280;68187;42.682;23.352;2023-06-14T10:03:12;94935.88;;;23.00;58.74
78835;BME280;68187;42.682;23.352;2023-06-14T10:05:42;94939.25;;;22.97;60.36
78835;BME280;68187;42.682;23.352;2023-06-14T10:08:13;94930.47;;;22.84;60.04
78835;BME280;68187;42.682;23.352;2023-06-14T10:10:43;94919.34;;;22.70;58.58
78835;BME280;68187;42.682;23.352;2023-06-14T10:13:11;94929.09;;;23.06;56.37
78835;BME280;68187;42.682;23.352;2023-06-14T10:15:44;94915.63;;;23.21;58.26
78835;BME280;68187;42.682;23.352;2023-06-14T10:18:21;94911.69;;;23.50;58.01
78835;BME280;68187;42.682;23.352;2023-06-14T10:20:54;94914.97;;;23.94;58.51
78835;BME280;68187;42.682;23.352;2023-06-14T10:23:24;94907.31;;;24.15;56.85
78835;BME280;68187;42.682;23.352;2023-06-14T10:25:56;94908.47;;;24.33;55.51
78835;BME280;68187;42.682;23.352;2023-06-14T10:28:25;94908.97;;;24.20;54.10
78835;BME280;68187;42.682;23.352;2023-06-14T10:31:08;94909.53;;;24.29;55.84
78835;BME280;68187;42.682;23.352;2023-06-14T10:33:36;94896.63;;;24.19;53.52
78835;BME280;68187;42.682;23.352;2023-06-14T10:36:11;94899.22;;;24.34;52.15
78835;BME280;68187;42.682;23.352;2023-06-14T10:38:57;94910.38;;;24.14;54.36
78835;BME280;68187;42.682;23.352;2023-06-14T10:41:27;94903.31;;;23.71;52.53
78835;BME280;68187;42.682;23.352;2023-06-14T10:44:10;94897.91;;;23.36;54.58
78835;BME280;68187;42.682;23.352;2023-06-14T10:46:37;94895.63;;;23.22;56.04
78835;BME280;68187;42.682;23.352;2023-06-14T10:49:04;94908.66;;;23.20;56.73
78835;BME280;68187;42.682;23.352;2023-06-14T10:51:38;94885.38;;;23.28;57.51
78835;BME280;68187;42.682;23.352;2023-06-14T10:54:12;94898.13;;;23.62;57.30
78835;BME280;68187;42.682;23.352;2023-06-14T10:56:46;94889.41;;;23.69;53.62
78835;BME280;68187;42.682;23.352;2023-06-14T10:59:14;94880.28;;;23.58;54.40
78835;BME280;68187;42.682;23.352;2023-06-14T11:01:49;94880.66;;;23.40;54.77
78835;BME280;68187;42.682;23.352;2023-06-14T11:04:30;94884.84;;;23.38;57.64
78835;BME280;68187;42.682;23.352;2023-06-14T11:07:10;94883.63;;;23.35;56.17
78835;BME280;68187;42.682;23.352;2023-06-14T11:09:58;94876.53;;;23.62;58.33
78835;BME280;68187;42.682;23.352;2023-06-14T11:12:34;94866.97;;;23.84;53.81
78835;BME280;68187;42.682;23.352;2023-06-14T11:15:02;94859.53;;;24.16;55.08
78835;BME280;68187;42.682;23.352;2023-06-14T11:17:29;94867.25;;;24.36;54.34
78835;BME280;68187;42.682;23.352;2023-06-14T11:20:07;94865.63;;;24.32;53.84
78835;BME280;68187;42.682;23.352;2023-06-14T11:22:39;94843.91;;;24.25;52.37
78835;BME280;68187;42.682;23.352;2023-06-14T11:25:08;94873.75;;;24.54;52.86
78835;BME280;68187;42.682;23.352;2023-06-14T11:27:36;94847.16;;;24.75;54.17
78835;BME280;68187;42.682;23.352;2023-06-14T11:30:06;94863.00;;;25.00;52.44
78835;BME280;68187;42.682;23.352;2023-06-14T11:32:33;94857.53;;;25.22;52.49
78835;BME280;68187;42.682;23.352;2023-06-14T11:35:00;94856.25;;;25.39;50.80
78835;BME280;68187;42.682;23.352;2023-06-14T11:37:27;94858.03;;;25.54;46.79
78835;BME280;68187;42.682;23.352;2023-06-14T11:39:56;94852.00;;;25.64;47.69
78835;BME280;68187;42.682;23.352;2023-06-14T11:42:23;94865.38;;;25.83;47.73
78835;BME280;68187;42.682;23.352;2023-06-14T11:44:51;94853.53;;;25.95;47.50
78835;BME280;68187;42.682;23.352;2023-06-14T11:47:18;94841.69;;;26.06;46.69
78835;BME280;68187;42.682;23.352;2023-06-14T11:49:44;94848.81;;;26.18;47.96
78835;BME280;68187;42.682;23.352;2023-06-14T11:52:12;94816.19;;;26.07;46.53
78835;BME280;68187;42.682;23.352;2023-06-14T11:54:39;94831.16;;;26.31;47.07
78835;BME280;68187;42.682;23.352;2023-06-14T11:57:06;94836.41;;;26.13;48.04
78835;BME280;68187;42.682;23.352;2023-06-14T11:59:38;94834.16;;;25.89;47.85
78835;BME280;68187;42.682;23.352;2023-06-14T12:02:07;94825.50;;;25.77;48.01
78835;BME280;68187;42.682;23.352;2023-06-14T12:04:34;94814.22;;;25.71;47.89
78835;BME280;68187;42.682;23.352;2023-06-14T12:07:08;94823.75;;;25.91;46.46
78835;BME280;68187;42.682;23.352;2023-06-14T12:09:37;94805.72;;;26.06;46.63
78835;BME280;68187;42.682;23.352;2023-06-14T12:12:05;94809.63;;;26.08;47.14
78835;BME280;68187;42.682;23.352;2023-06-14T12:14:32;94797.66;;;25.76;47.30
78835;BME280;68187;42.682;23.352;2023-06-14T12:17:05;94801.13;;;25.43;48.01
78835;BME280;68187;42.682;23.352;2023-06-14T12:19:32;94805.88;;;25.27;50.30
78835;BME280;68187;42.682;23.352;2023-06-14T12:22:00;94805.44;;;24.99;49.25
78835;BME280;68187;42.682;23.352;2023-06-14T12:24:30;94803.53;;;25.00;48.93
78835;BME280;68187;42.682;23.352;2023-06-14T12:26:58;94788.63;;;25.09;48.93
78835;BME280;68187;42.682;23.352;2023-06-14T12:29:25;94801.47;;;25.16;48.31
78835;BME280;68187;42.682;23.352;2023-06-14T12:31:52;94782.91;;;24.88;47.89
78835;BME280;68187;42.682;23.352;2023-06-14T12:34:21;94776.25;;;24.82;47.81
78835;BME280;68187;42.682;23.352;2023-06-14T12:36:47;94791.69;;;24.82;47.49
78835;BME280;68187;42.682;23.352;2023-06-14T12:39:15;94794.13;;;24.67;48.07
78835;BME280;68187;42.682;23.352;2023-06-14T12:41:41;94781.91;;;24.51;50.10
78835;BME280;68187;42.682;23.352;2023-06-14T12:44:08;94786.41;;;24.43;50.35
78835;BME280;68187;42.682;23.352;2023-06-14T12:46:36;94797.06;;;24.36;52.08
78835;BME280;68187;42.682;23.352;2023-06-14T12:49:05;94772.53;;;24.22;50.97
78835;BME280;68187;42.682;23.352;2023-06-14T12:51:33;94774.38;;;24.18;50.80
78835;BME280;68187;42.682;23.352;2023-06-14T12:54:00;94770.06;;;24.14;50.87
78835;BME280;68187;42.682;23.352;2023-06-14T12:56:27;94766.44;;;24.06;51.90